createdAt,value
2023-02-14T00:00:50.297Z,51.47
2023-02-14T00:03:16.685Z,44.23
2023-02-14T00:05:43.224Z,46.00
2023-02-14T00:08:09.664Z,43.70
2023-02-14T00:10:36.124Z,44.40
2023-02-14T00:13:02.835Z,44.63
2023-02-14T00:15:29.220Z,38.07
2023-02-14T00:17:56.692Z,42.93
2023-02-14T00:20:23.153Z,46.77
2023-02-14T00:22:49.601Z,44.27
2023-02-14T00:25:16.274Z,41.30
2023-02-14T00:27:43.009Z,46.17
2023-02-14T00:30:10.307Z,44.33
2023-02-14T00:32:39.740Z,43.43
2023-02-14T00:35:07.152Z,38.83
2023-02-14T00:37:33.866Z,41.80
2023-02-14T00:40:00.308Z,41.93
2023-02-14T00:42:26.671Z,44.23
2023-02-14T00:44:53.071Z,43.33
2023-02-14T00:47:19.500Z,42.93
2023-02-14T00:49:45.963Z,47.27
2023-02-14T00:52:12.372Z,40.33
2023-02-14T00:54:38.719Z,46.63
2023-02-14T00:57:05.165Z,45.60
2023-02-14T00:59:31.583Z,42.77
2023-02-14T01:01:57.986Z,41.70
2023-02-14T01:04:24.568Z,42.03
2023-02-14T01:06:50.978Z,41.80
2023-02-14T01:09:17.332Z,41.50
2023-02-14T01:11:43.711Z,46.03
2023-02-14T01:14:10.036Z,42.00
2023-02-14T01:16:38.340Z,42.13
2023-02-14T01:19:04.833Z,42.87
2023-02-14T01:21:32.640Z,39.67
2023-02-14T01:24:00.429Z,41.40
2023-02-14T01:26:27.178Z,41.63
2023-02-14T01:28:53.702Z,45.73
2023-02-14T01:31:24.628Z,41.43
2023-02-14T01:33:51.521Z,47.73
2023-02-14T01:36:19.153Z,42.50
2023-02-14T01:38:45.721Z,43.47
2023-02-14T01:41:12.223Z,41.33
2023-02-14T01:43:49.707Z,44.77
2023-02-14T01:46:16.272Z,44.50
2023-02-14T01:48:42.680Z,41.73
2023-02-14T01:51:09.185Z,46.57
2023-02-14T01:53:35.687Z,41.67
2023-02-14T01:56:04.856Z,41.80
2023-02-14T01:58:35.333Z,41.27
2023-02-14T02:01:03.761Z,40.57
2023-02-14T02:03:34.268Z,41.07
2023-02-14T02:06:06.858Z,47.83
2023-02-14T02:08:35.053Z,44.43
2023-02-14T02:11:01.745Z,40.87
2023-02-14T02:13:28.307Z,41.93
2023-02-14T02:16:13.683Z,44.67
2023-02-14T02:18:40.139Z,44.30
2023-02-14T02:21:15.916Z,40.97
2023-02-14T02:24:00.384Z,45.33
2023-02-14T02:26:37.619Z,45.10
2023-02-14T02:29:15.984Z,43.03
2023-02-14T02:32:07.419Z,47.50
2023-02-14T02:34:52.436Z,45.80
2023-02-14T02:37:33.259Z,43.43
2023-02-14T02:40:18.588Z,41.60
2023-02-14T02:43:00.302Z,44.20
2023-02-14T02:45:35.740Z,41.70
2023-02-14T02:48:02.173Z,44.17
2023-02-14T02:50:50.337Z,49.63
2023-02-14T02:53:16.679Z,43.33
2023-02-14T02:56:01.586Z,46.37
2023-02-14T02:58:31.753Z,46.83
2023-02-14T03:01:00.009Z,46.00
2023-02-14T03:03:46.763Z,44.50
2023-02-14T03:06:13.135Z,48.37
2023-02-14T03:08:39.561Z,46.00
2023-02-14T03:11:05.979Z,46.17
2023-02-14T03:13:41.552Z,43.13
2023-02-14T03:16:11.034Z,49.63
2023-02-14T03:18:46.438Z,49.53
2023-02-14T03:21:31.721Z,46.90
2023-02-14T03:24:02.938Z,46.43
2023-02-14T03:26:35.758Z,48.17
2023-02-14T03:29:07.032Z,48.57
2023-02-14T03:31:40.708Z,43.77
2023-02-14T03:34:13.386Z,43.43
2023-02-14T03:36:47.839Z,42.60
2023-02-14T03:39:26.790Z,47.50
2023-02-14T03:42:06.381Z,49.13
2023-02-14T03:44:33.781Z,46.67
2023-02-14T03:47:09.516Z,45.90
2023-02-14T03:49:38.930Z,48.83
2023-02-14T03:52:07.301Z,41.07
2023-02-14T03:54:34.485Z,47.10
2023-02-14T03:57:16.390Z,43.57
2023-02-14T03:59:43.415Z,43.47
2023-02-14T04:02:29.302Z,49.40
2023-02-14T04:04:56.683Z,47.47
2023-02-14T04:07:24.145Z,47.10
2023-02-14T04:09:50.843Z,45.53
2023-02-14T04:12:21.642Z,50.77
2023-02-14T04:14:50.309Z,50.90
2023-02-14T04:17:35.234Z,51.80
2023-02-14T04:20:01.689Z,51.13
2023-02-14T04:22:28.117Z,56.03
2023-02-14T04:24:54.527Z,62.73
2023-02-14T04:27:20.949Z,50.37
2023-02-14T04:29:51.026Z,49.33
2023-02-14T04:32:18.981Z,50.37
2023-02-14T04:34:45.615Z,53.57
2023-02-14T04:37:12.725Z,53.00
2023-02-14T04:39:39.196Z,61.53
2023-02-14T04:42:05.684Z,50.03
2023-02-14T04:44:34.034Z,51.43
2023-02-14T04:47:00.641Z,49.63
2023-02-14T04:49:27.204Z,49.17
2023-02-14T04:51:53.626Z,71.00
2023-02-14T04:54:19.999Z,53.67
2023-02-14T04:56:46.401Z,53.17
2023-02-14T04:59:14.517Z,51.20
2023-02-14T05:01:41.210Z,52.60
2023-02-14T05:04:07.994Z,51.53
2023-02-14T05:06:34.465Z,54.87
2023-02-14T05:09:01.330Z,55.10
2023-02-14T05:11:28.098Z,55.50
2023-02-14T05:13:54.921Z,47.83
2023-02-14T05:16:21.406Z,51.57
2023-02-14T05:18:47.818Z,53.63
2023-02-14T05:21:14.212Z,53.43
2023-02-14T05:23:40.905Z,46.10
2023-02-14T05:26:07.601Z,50.03
2023-02-14T05:28:34.064Z,49.87
2023-02-14T05:31:00.810Z,54.93
2023-02-14T05:33:27.608Z,51.27
2023-02-14T05:35:54.043Z,48.33
2023-02-14T05:38:20.507Z,47.90
2023-02-14T05:40:46.853Z,50.57
2023-02-14T05:43:13.307Z,43.87
2023-02-14T05:45:42.005Z,50.10
2023-02-14T05:48:08.378Z,49.33
2023-02-14T05:50:34.796Z,52.37
2023-02-14T05:53:01.237Z,48.73
2023-02-14T05:55:27.684Z,54.80
2023-02-14T05:57:54.095Z,48.10
2023-02-14T06:00:21.028Z,49.00
2023-02-14T06:02:47.385Z,49.97
2023-02-14T06:05:14.949Z,49.87
2023-02-14T06:07:43.318Z,53.47
2023-02-14T06:10:10.094Z,52.73
2023-02-14T06:12:36.445Z,52.53
2023-02-14T06:15:02.892Z,49.17
2023-02-14T06:17:29.434Z,44.23
2023-02-14T06:19:55.988Z,52.70
2023-02-14T06:22:22.375Z,46.67
2023-02-14T06:24:48.855Z,47.53
2023-02-14T06:27:15.246Z,48.47
2023-02-14T06:29:41.625Z,47.73
2023-02-14T06:32:08.184Z,51.40
2023-02-14T06:34:34.825Z,50.03
2023-02-14T06:37:01.272Z,51.90
2023-02-14T06:39:27.708Z,50.20
2023-02-14T06:41:54.133Z,51.73
2023-02-14T06:44:20.603Z,56.77
2023-02-14T06:46:47.024Z,45.37
2023-02-14T06:49:13.468Z,51.47
2023-02-14T06:51:39.855Z,50.60
2023-02-14T06:54:06.284Z,46.47
2023-02-14T06:56:32.800Z,51.27
2023-02-14T06:58:59.298Z,52.03
2023-02-14T07:01:25.912Z,47.77
2023-02-14T07:03:52.381Z,49.47
2023-02-14T07:06:18.824Z,46.10
2023-02-14T07:08:45.661Z,47.63
2023-02-14T07:11:12.022Z,47.37
2023-02-14T07:13:39.119Z,49.83
2023-02-14T07:16:05.846Z,49.27
2023-02-14T07:18:33.544Z,49.93
2023-02-14T07:21:00.295Z,48.77
2023-02-14T07:23:26.984Z,50.87
2023-02-14T07:25:54.638Z,41.60
2023-02-14T07:28:21.207Z,50.30
2023-02-14T07:30:47.831Z,45.83
2023-02-14T07:33:14.260Z,50.87
2023-02-14T07:35:40.639Z,53.43
2023-02-14T07:38:07.078Z,44.57
2023-02-14T07:40:33.708Z,47.50
2023-02-14T07:43:01.007Z,43.13
2023-02-14T07:45:27.595Z,42.83
2023-02-14T07:47:55.212Z,47.93
2023-02-14T07:50:22.787Z,43.47
2023-02-14T07:52:49.801Z,45.47
2023-02-14T07:55:16.519Z,41.20
2023-02-14T07:57:43.125Z,42.13
2023-02-14T08:00:09.761Z,38.90
2023-02-14T08:02:36.136Z,36.67
2023-02-14T08:05:02.713Z,38.47
2023-02-14T08:07:29.117Z,38.13
2023-02-14T08:09:55.497Z,43.97
2023-02-14T08:12:40.911Z,38.30
2023-02-14T08:15:26.009Z,40.93
2023-02-14T08:17:52.438Z,41.97
2023-02-14T08:20:18.883Z,37.83
2023-02-14T08:22:45.310Z,32.47
2023-02-14T08:25:11.933Z,33.57
2023-02-14T08:27:38.291Z,32.23
2023-02-14T08:30:05.986Z,33.00
2023-02-14T08:32:32.458Z,33.70
2023-02-14T08:34:58.939Z,35.33
2023-02-14T08:37:25.299Z,39.17
2023-02-14T08:39:51.793Z,34.87
2023-02-14T08:42:18.230Z,37.87
2023-02-14T08:44:44.636Z,38.43
2023-02-14T08:47:10.989Z,35.47
2023-02-14T08:49:37.571Z,36.83
2023-02-14T08:52:03.974Z,35.20
2023-02-14T08:54:30.378Z,38.47
2023-02-14T08:56:56.946Z,36.77
2023-02-14T08:59:23.524Z,37.07
2023-02-14T09:01:49.958Z,36.13
2023-02-14T09:04:16.384Z,35.47
2023-02-14T09:06:42.874Z,34.80
2023-02-14T09:09:09.299Z,33.53
2023-02-14T09:11:36.247Z,33.17
2023-02-14T09:14:02.585Z,32.53
2023-02-14T09:16:29.037Z,34.63
2023-02-14T09:18:59.668Z,32.63
2023-02-14T09:21:27.049Z,34.47
2023-02-14T09:23:53.829Z,35.43
2023-02-14T09:26:20.440Z,30.00
2023-02-14T09:28:47.238Z,31.07
2023-02-14T09:31:17.733Z,31.83
2023-02-14T09:33:44.988Z,28.20
2023-02-14T09:36:20.385Z,29.43
2023-02-14T09:38:48.080Z,26.70
2023-02-14T09:41:31.805Z,33.60
2023-02-14T09:44:20.283Z,28.37
2023-02-14T09:46:50.388Z,32.57
2023-02-14T09:49:19.113Z,28.33
2023-02-14T09:51:49.402Z,29.03
2023-02-14T09:54:24.504Z,26.13
2023-02-14T09:56:54.725Z,25.30
2023-02-14T09:59:27.420Z,27.67
2023-02-14T10:02:05.918Z,30.03
2023-02-14T10:04:34.580Z,29.07
2023-02-14T10:07:00.981Z,26.07
2023-02-14T10:09:40.300Z,28.60
2023-02-14T10:12:10.913Z,27.77
2023-02-14T10:14:40.945Z,27.80
2023-02-14T10:17:14.456Z,26.47
2023-02-14T10:19:43.289Z,26.07
2023-02-14T10:22:14.611Z,25.57
2023-02-14T10:24:45.519Z,23.57
2023-02-14T10:27:17.716Z,25.90
2023-02-14T10:29:44.148Z,24.30
2023-02-14T10:32:15.109Z,24.83
2023-02-14T10:34:41.680Z,23.77
2023-02-14T10:37:11.021Z,24.58
2023-02-14T10:39:57.716Z,22.35
2023-02-14T10:42:35.217Z,21.92
2023-02-14T10:45:04.745Z,23.15
2023-02-14T10:47:43.449Z,22.75
2023-02-14T10:50:09.871Z,22.88
2023-02-14T10:53:11.581Z,22.70
2023-02-14T10:55:46.929Z,20.95
2023-02-14T10:58:17.788Z,21.80
2023-02-14T11:00:50.682Z,22.30
2023-02-14T11:03:17.792Z,20.23
2023-02-14T11:05:50.179Z,22.42
2023-02-14T11:08:26.288Z,21.52
2023-02-14T11:10:54.354Z,22.42
2023-02-14T11:13:32.599Z,21.55
2023-02-14T11:16:00.145Z,23.23
2023-02-14T11:18:32.776Z,20.33
2023-02-14T11:21:00.106Z,24.27
2023-02-14T11:23:26.546Z,21.83
2023-02-14T11:25:55.625Z,24.35
2023-02-14T11:28:22.417Z,20.67
2023-02-14T11:30:50.525Z,21.67
2023-02-14T11:33:35.918Z,24.65
2023-02-14T11:36:03.703Z,22.85
2023-02-14T11:38:35.945Z,23.33
2023-02-14T11:41:03.294Z,25.60
2023-02-14T11:43:33.908Z,23.42
2023-02-14T11:46:18.597Z,27.10
2023-02-14T11:49:14.308Z,25.10
2023-02-14T11:51:45.394Z,22.00
2023-02-14T11:54:13.620Z,25.15
2023-02-14T11:56:45.863Z,24.63
2023-02-14T11:59:14.506Z,26.42
2023-02-14T12:01:41.084Z,24.52
2023-02-14T12:04:15.457Z,23.88
2023-02-14T12:06:41.929Z,23.55
2023-02-14T12:09:23.643Z,23.10
2023-02-14T12:11:56.689Z,23.05
2023-02-14T12:14:24.361Z,23.52
2023-02-14T12:16:58.624Z,23.52
2023-02-14T12:19:31.505Z,24.15
2023-02-14T12:22:03.404Z,22.08
2023-02-14T12:24:32.843Z,28.90
2023-02-14T12:27:18.279Z,24.38
2023-02-14T12:29:52.210Z,23.73
2023-02-14T12:32:18.611Z,22.33
2023-02-14T12:34:45.169Z,30.95
2023-02-14T12:37:14.823Z,23.33
2023-02-14T12:39:59.751Z,22.45
2023-02-14T12:42:27.401Z,21.63
2023-02-14T12:45:14.121Z,21.70
2023-02-14T12:48:00.849Z,21.50
2023-02-14T12:50:30.341Z,22.08
2023-02-14T12:53:04.892Z,22.83
2023-02-14T12:55:41.428Z,29.95
2023-02-14T12:58:23.592Z,25.70
2023-02-14T13:00:52.991Z,24.88
2023-02-14T13:03:22.296Z,21.60
2023-02-14T13:06:09.798Z,20.20
2023-02-14T13:09:01.485Z,23.00
2023-02-14T13:11:39.872Z,22.83
2023-02-14T13:14:28.518Z,25.48
2023-02-14T13:17:24.343Z,26.80
2023-02-14T13:19:56.223Z,24.05
2023-02-14T13:22:24.141Z,22.35
2023-02-14T13:24:52.386Z,24.97
2023-02-14T13:27:22.501Z,23.58
2023-02-14T13:29:54.488Z,28.77
2023-02-14T13:32:22.610Z,24.00
2023-02-14T13:34:49.562Z,28.97
2023-02-14T13:37:18.002Z,39.17
2023-02-14T13:39:47.665Z,29.95
2023-02-14T13:42:34.151Z,25.88
2023-02-14T13:45:00.597Z,26.20
2023-02-14T13:47:27.270Z,23.30
2023-02-14T13:49:58.581Z,25.70
2023-02-14T13:52:43.095Z,23.87
2023-02-14T13:55:14.615Z,25.03
2023-02-14T13:57:41.783Z,25.37
2023-02-14T14:00:21.652Z,27.53
2023-02-14T14:02:55.065Z,29.00
2023-02-14T14:05:44.633Z,27.03
2023-02-14T14:08:17.784Z,31.03
2023-02-14T14:10:45.436Z,26.60
2023-02-14T14:13:31.782Z,28.30
2023-02-14T14:16:17.118Z,28.50
2023-02-14T14:18:43.799Z,29.37
2023-02-14T14:21:37.602Z,26.80
2023-02-14T14:24:04.229Z,29.50
2023-02-14T14:26:39.702Z,29.33
2023-02-14T14:29:25.001Z,30.80
2023-02-14T14:31:55.849Z,32.37
2023-02-14T14:34:24.912Z,27.00
2023-02-14T14:37:03.317Z,26.57
2023-02-14T14:39:31.099Z,25.80
2023-02-14T14:42:06.912Z,30.13
2023-02-14T14:44:34.556Z,28.67
2023-02-14T14:47:01.251Z,27.03
2023-02-14T14:49:28.012Z,32.07
2023-02-14T14:51:55.457Z,29.83
2023-02-14T14:54:25.013Z,27.63
2023-02-14T14:56:57.144Z,30.40
2023-02-14T14:59:29.376Z,32.13
2023-02-14T15:01:56.150Z,31.57
2023-02-14T15:04:25.424Z,33.37
2023-02-14T15:06:52.144Z,29.70
2023-02-14T15:09:23.946Z,27.93
2023-02-14T15:12:10.857Z,26.63
2023-02-14T15:14:39.496Z,24.83
2023-02-14T15:17:07.198Z,30.93
2023-02-14T15:19:37.303Z,31.50
2023-02-14T15:22:05.984Z,28.47
2023-02-14T15:24:35.399Z,28.53
2023-02-14T15:27:02.932Z,30.63
2023-02-14T15:29:31.358Z,26.17
2023-02-14T15:32:00.485Z,27.80
2023-02-14T15:34:30.652Z,27.60
2023-02-14T15:37:03.684Z,27.27
2023-02-14T15:39:34.199Z,24.90
2023-02-14T15:42:00.748Z,26.50
2023-02-14T15:44:27.245Z,32.63
2023-02-14T15:46:55.537Z,33.87
2023-02-14T15:49:23.432Z,33.43
2023-02-14T15:51:50.485Z,28.80
2023-02-14T15:54:30.796Z,33.87
2023-02-14T15:56:58.838Z,30.10
2023-02-14T15:59:26.914Z,29.67
2023-02-14T16:01:55.063Z,32.33
2023-02-14T16:04:28.762Z,33.67
2023-02-14T16:07:07.437Z,31.43
2023-02-14T16:09:37.851Z,32.37
2023-02-14T16:12:22.828Z,32.37
2023-02-14T16:15:00.400Z,32.97
2023-02-14T16:17:34.641Z,38.03
2023-02-14T16:20:21.162Z,34.23
2023-02-14T16:22:47.568Z,33.10
2023-02-14T16:25:14.028Z,33.70
2023-02-14T16:27:40.552Z,29.73
2023-02-14T16:30:07.337Z,33.93
2023-02-14T16:32:33.966Z,34.63
2023-02-14T16:35:00.754Z,35.40
2023-02-14T16:37:30.125Z,38.40
2023-02-14T16:39:58.829Z,29.90
2023-02-14T16:42:25.399Z,36.47
2023-02-14T16:44:51.868Z,45.40
2023-02-14T16:47:19.794Z,34.83
2023-02-14T16:49:46.496Z,37.07
2023-02-14T16:52:14.681Z,37.03
2023-02-14T16:54:41.875Z,35.83
2023-02-14T16:57:12.667Z,30.27
2023-02-14T16:59:39.331Z,37.53
2023-02-14T17:02:05.738Z,38.07
2023-02-14T17:04:32.161Z,35.43
2023-02-14T17:07:01.954Z,32.07
2023-02-14T17:09:30.374Z,35.17
2023-02-14T17:11:58.502Z,45.07
2023-02-14T17:14:28.240Z,48.27
2023-02-14T17:16:56.501Z,47.40
2023-02-14T17:19:23.278Z,37.63
2023-02-14T17:21:49.817Z,40.43
2023-02-14T17:24:17.781Z,43.30
2023-02-14T17:26:44.744Z,36.90
2023-02-14T17:29:12.535Z,38.23
2023-02-14T17:31:39.279Z,35.17
2023-02-14T17:34:06.355Z,38.00
2023-02-14T17:36:35.644Z,37.97
2023-02-14T17:39:03.703Z,38.30
2023-02-14T17:41:30.537Z,34.90
2023-02-14T17:44:00.468Z,37.47
2023-02-14T17:46:28.749Z,38.53
2023-02-14T17:48:55.602Z,47.03
2023-02-14T17:51:33.393Z,38.17
2023-02-14T17:54:08.696Z,165.77
2023-02-14T17:56:35.184Z,53.77
2023-02-14T17:59:01.589Z,41.47
2023-02-14T18:01:31.372Z,37.00
2023-02-14T18:03:57.885Z,45.23
2023-02-14T18:06:24.355Z,41.13
2023-02-14T18:08:52.798Z,39.20
2023-02-14T18:11:19.888Z,39.47
2023-02-14T18:13:46.564Z,37.07
2023-02-14T18:16:17.549Z,42.20
2023-02-14T18:18:44.333Z,39.20
2023-02-14T18:21:11.783Z,42.07
2023-02-14T18:23:38.185Z,37.27
2023-02-14T18:26:06.053Z,37.00
2023-02-14T18:28:33.155Z,40.70
2023-02-14T18:31:06.963Z,40.37
2023-02-14T18:33:34.171Z,40.90
2023-02-14T18:36:20.282Z,40.77
2023-02-14T18:38:48.386Z,37.13
2023-02-14T18:41:15.871Z,41.30
2023-02-14T18:43:42.816Z,41.70
2023-02-14T18:46:10.103Z,40.20
2023-02-14T18:48:37.702Z,36.03
2023-02-14T18:51:24.539Z,37.17
2023-02-14T18:53:54.588Z,39.87
2023-02-14T18:56:22.422Z,46.20
2023-02-14T18:58:50.787Z,43.70
2023-02-14T19:01:18.996Z,43.10
2023-02-14T19:03:45.498Z,43.43
2023-02-14T19:06:12.583Z,39.70
2023-02-14T19:08:39.873Z,36.97
2023-02-14T19:11:12.841Z,42.20
2023-02-14T19:13:39.337Z,43.93
2023-02-14T19:16:09.254Z,41.27
2023-02-14T19:18:35.611Z,45.70
2023-02-14T19:21:12.627Z,45.33
2023-02-14T19:23:39.910Z,45.33
2023-02-14T19:26:10.389Z,40.67
2023-02-14T19:28:36.796Z,44.07
2023-02-14T19:31:03.913Z,40.43
2023-02-14T19:33:30.626Z,44.33
2023-02-14T19:36:01.410Z,47.30
2023-02-14T19:38:28.100Z,45.47
2023-02-14T19:40:56.372Z,46.17
2023-02-14T19:43:22.763Z,45.30
2023-02-14T19:45:50.921Z,48.37
2023-02-14T19:48:17.420Z,50.27
2023-02-14T19:50:44.029Z,54.07
2023-02-14T19:53:10.535Z,53.47
2023-02-14T19:55:40.522Z,52.97
2023-02-14T19:58:07.767Z,51.87
2023-02-14T20:00:37.398Z,49.80
2023-02-14T20:03:03.950Z,52.73
2023-02-14T20:05:30.383Z,50.87
2023-02-14T20:07:56.861Z,53.80
2023-02-14T20:10:23.400Z,49.63
2023-02-14T20:12:49.918Z,55.07
2023-02-14T20:15:16.503Z,56.53
2023-02-14T20:17:42.993Z,53.83
2023-02-14T20:20:13.799Z,55.97
2023-02-14T20:22:40.971Z,51.73
2023-02-14T20:25:09.006Z,58.97
2023-02-14T20:27:35.951Z,55.93
2023-02-14T20:30:02.462Z,55.93
2023-02-14T20:32:28.877Z,54.17
2023-02-14T20:34:55.953Z,54.43
2023-02-14T20:37:23.933Z,56.30
2023-02-14T20:39:50.616Z,61.37
2023-02-14T20:42:17.272Z,58.07
2023-02-14T20:44:45.437Z,57.47
2023-02-14T20:47:11.995Z,59.23
2023-02-14T20:49:39.120Z,60.53
2023-02-14T20:52:06.024Z,56.83
2023-02-14T20:54:32.481Z,60.30
2023-02-14T20:56:59.100Z,59.97
2023-02-14T20:59:29.056Z,61.80
2023-02-14T21:01:56.270Z,59.00
2023-02-14T21:04:22.780Z,63.77
2023-02-14T21:06:49.216Z,61.97
2023-02-14T21:09:16.334Z,61.07
2023-02-14T21:11:42.837Z,59.60
2023-02-14T21:14:11.882Z,62.33
2023-02-14T21:16:38.298Z,69.27
2023-02-14T21:19:05.907Z,65.93
2023-02-14T21:21:34.922Z,66.13
2023-02-14T21:24:11.634Z,60.90
2023-02-14T21:26:39.101Z,62.90
2023-02-14T21:29:05.944Z,66.80
2023-02-14T21:31:32.515Z,65.10
2023-02-14T21:33:59.814Z,64.27
2023-02-14T21:36:27.367Z,59.30
2023-02-14T21:38:54.981Z,66.67
2023-02-14T21:41:22.397Z,62.83
2023-02-14T21:43:52.614Z,67.43
2023-02-14T21:46:21.479Z,68.43
2023-02-14T21:49:06.607Z,73.67
2023-02-14T21:51:32.952Z,76.50
2023-02-14T21:54:00.937Z,73.00
2023-02-14T21:56:27.894Z,69.70
2023-02-14T21:58:56.015Z,78.47
2023-02-14T22:01:26.830Z,69.83
2023-02-14T22:03:54.377Z,80.20
2023-02-14T22:06:20.957Z,67.63
2023-02-14T22:08:51.649Z,75.03
2023-02-14T22:11:19.159Z,74.90
2023-02-14T22:13:45.621Z,78.17
2023-02-14T22:16:14.332Z,72.33
2023-02-14T22:18:41.340Z,75.90
2023-02-14T22:21:11.713Z,75.10
2023-02-14T22:23:38.392Z,72.57
2023-02-14T22:26:12.948Z,73.70
2023-02-14T22:28:40.271Z,73.70
2023-02-14T22:31:07.337Z,78.33
2023-02-14T22:33:33.847Z,82.07
2023-02-14T22:36:01.106Z,82.70
2023-02-14T22:38:27.676Z,83.87
2023-02-14T22:40:54.305Z,78.77
2023-02-14T22:43:21.785Z,77.67
2023-02-14T22:45:48.461Z,76.50
2023-02-14T22:48:15.268Z,86.33
2023-02-14T22:50:41.933Z,84.93
2023-02-14T22:53:08.400Z,79.10
2023-02-14T22:55:34.753Z,77.23
2023-02-14T22:58:01.388Z,76.00
2023-02-14T23:00:27.841Z,89.03
2023-02-14T23:02:54.244Z,91.47
2023-02-14T23:05:20.703Z,86.10
2023-02-14T23:07:47.097Z,72.43
2023-02-14T23:10:13.494Z,83.93
2023-02-14T23:12:58.564Z,84.00
2023-02-14T23:16:03.874Z,86.73
2023-02-14T23:18:48.877Z,85.83
2023-02-14T23:21:33.982Z,112.03
2023-02-14T23:24:00.383Z,95.50
2023-02-14T23:26:26.811Z,93.70
2023-02-14T23:28:53.238Z,82.40
2023-02-14T23:31:19.911Z,91.93
2023-02-14T23:33:50.440Z,95.67
2023-02-14T23:36:16.790Z,91.60
2023-02-14T23:38:43.220Z,107.43
2023-02-14T23:41:28.531Z,128.40
2023-02-14T23:43:54.917Z,87.87
2023-02-14T23:46:21.894Z,99.17
2023-02-14T23:48:48.271Z,93.53
2023-02-14T23:51:15.147Z,88.70
2023-02-14T23:53:41.536Z,83.80
2023-02-14T23:56:07.952Z,86.20
2023-02-14T23:58:34.332Z,93.60
